EHKD

De Kooy Airport

Den Helder, The Netherlands
METAR EHKD 232325Z AUTO 22021KT 6000 BR BKN004 OVC005 09/09 Q1013 YLO
Observed Flight Rules
Jan-23 @ 23:25 UTC (20 minutes ago) Instrument Flight Rules
Wind Visibility Clouds Conditions
220° at 21 knots 6,003 meters
  • Broken at 400' AGL
  • Overcast at 500' AGL
  • Mist
Temperatures Readings
Current 9°C / 48°F
Dewpoint 9°C / 48°F
Humidity 100%
Altimeter 29.91" Hg
Pressure 1013 hPa
Elevation 14
METAR EHKD 232325Z AUTO 22021KT 6000 BR BKN004 OVC005 09/09 Q1013 YLO
Observed Flight Rules
Jan-23 @ 23:25 UTC
(20 minutes ago)
LIFR
Wind Visibility
220° at 21 knots 6,003 meters
Clouds
  • Broken at 400' AGL
  • Overcast at 500' AGL
Conditions
  • Mist
Temperature Dewpoint
9°C / 48°F 9°C / 48°F
Humidity Altimeter Pressure
100% 29.91" Hg 1013 hPa